Cuxhaven, Germany

7:03 PM CEST on April 24, 2017 (GMT +0200)
Schiffsansagedienst Cuxhaven e.V. | | Change Station

Elev 0 ft 53.88 °N, 8.71 °E | Updated 9 seconds ago

Mostly Cloudy
Mostly Cloudy
44.6 °F
Feels Like 38 °F
N
13.8
Wind Variable Wind from WNW
Gusts 13.8 mph

Today
High -- | Low -- °F
--% Chance of Precip.
Yesterday
High -- | Low -- °F
Precip. -- in
Pressure 29.77 in
Visibility 6.2 miles
Clouds Few 1500 ft
Mostly Cloudy 2400 ft
Windchill 38 °F
Dew Point 37 °F
Humidity 75%
Rainfall 0.00 in
Snow Depth Not available.
6:04 AM 8:43 PM
Waning Crescent, 5% visible
METAR ETMN 241620Z 31012KT 9999 -RA FEW015 BKN024 07/04 Q1008 WHT WHT TEMPO GRN
Pressure 29.77 in
Visibility 6.2 miles
Clouds Few 1500 ft
Mostly Cloudy 2400 ft
Windchill 38 °F
Dew Point 37 °F
Humidity 75%
Rainfall 0.00 in
Snow Depth Not available.
6:04 AM 8:43 PM
Waning Crescent, 5% visible
METAR ETMN 241620Z 31012KT 9999 -RA FEW015 BKN024 07/04 Q1008 WHT WHT TEMPO GRN

Get Severe Weather Alerts

Thanks for signing up!

Be on the lookout for a verification email in your inbox.

You'll start receiving the daily forecast at 8 AM.

×

10-Day Weather Forecast

×

Almanac

Astronomy

Apr. 24, 2017 Rise Set
Actual Time
Civil Twilight
Nautical Twilight
Astronomical Twilight
Moon
Length of Visible Light
Length of Day
Tomorrow will be .
, % of the Moon is Illuminated

Today's Extremes

Country Highs Country Lows

Community

WunderPhotos

WunderBlog® & News

Nearby

Air Quality

  Air Quality AQ Index Pollutant
Not available.

Snow Depth

Station Depth Elevation

Earthquake Activity

City Distance Mag. Time & Date
Minimum magnitude displayed is 2.5.

Coastal Water Temperatures

Place Temperature

Stations

Nearby Weather Stations

Station Location Temp. Windchill Dew Point Humidity Wind Precip. Elev Updated Type